Pagina principală
METAR-TAF:

METAR-TAF

Aeroporturi :

Coffeyville, Kansas, Statele Unite ale Americii

Latitudine: 37-05-28N, longitudine: 095-33-59W, elevație: 229 m

Observații meteo curente

Raportul a fost făcut în urmă cu 55 de minute, la 20:52 UTC
Vânt 18 kt de la Sud/Sud-vest cu rafale de până la 26 kt
Temperatură 36°C
Umiditate 42%
Presiune 1012 hPa
Vizibilitate: 16.1 km
Cer senin

METAR: KCFV 222052Z AUTO 20018G26KT 10SM CLR 36/21 A2988 RMK AO2 PK WND 20027/2000 SLP110 T03560211 56020

Ora: 16:47 (21:47 UTC)


TAF: lipsă

Observații și prognoze meteo pentru peste 4.000 de aeroporturi (rapoarte METAR și TAF).

Stațiile disponibile sunt reprezentate pe hartă prin puncte galbene și roșii.

Țineți indicatorul mouse-ului pe punctul dorit pentru a vedea denumirea stației.

Apoi, faceți clic pentru a vedea observațiile și prognozele meteorologice.

Pentru a schimba harta: Pentru mărire, faceți clic pe butoanele verzi cu cruce neagră; pentru micșorare, pe butonul verde cu o liniuță; pentru hărți învecinate, pe săgețile verzi.


METAR-TAF: